createdAt,value
2023-05-15T00:00:16.693Z,13.51
2023-05-15T00:02:43.396Z,13.63
2023-05-15T00:05:13.018Z,13.37
2023-05-15T00:07:40.833Z,13.28
2023-05-15T00:10:08.172Z,13.24
2023-05-15T00:12:34.816Z,13.16
2023-05-15T00:15:01.455Z,12.79
2023-05-15T00:17:28.198Z,12.98
2023-05-15T00:19:54.848Z,12.51
2023-05-15T00:22:21.467Z,12.62
2023-05-15T00:24:48.184Z,11.84
2023-05-15T00:27:14.810Z,11.68
2023-05-15T00:29:41.442Z,11.49
2023-05-15T00:32:08.128Z,11.43
2023-05-15T00:34:34.751Z,11.78
2023-05-15T00:37:01.473Z,11.68
2023-05-15T00:39:28.115Z,12.03
2023-05-15T00:41:55.817Z,11.95
2023-05-15T00:44:25.238Z,11.79
2023-05-15T00:46:54.559Z,12.16
2023-05-15T00:49:22.540Z,11.96
2023-05-15T00:51:50.683Z,11.56
2023-05-15T00:54:17.460Z,11.59
2023-05-15T00:56:45.825Z,11.45
2023-05-15T00:59:13.214Z,11.51
2023-05-15T01:01:40.248Z,11.82
2023-05-15T01:04:07.185Z,11.71
2023-05-15T01:06:33.851Z,12.02
2023-05-15T01:09:01.151Z,12.35
2023-05-15T01:11:28.859Z,12.68
2023-05-15T01:13:55.800Z,12.16
2023-05-15T01:16:22.465Z,12.31
2023-05-15T01:18:49.240Z,12.05
2023-05-15T01:21:37.248Z,12.23
2023-05-15T01:24:28.764Z,11.94
2023-05-15T01:27:07.820Z,12.06
2023-05-15T01:29:41.269Z,12.61
2023-05-15T01:32:40.471Z,12.72
2023-05-15T01:35:15.877Z,12.35
2023-05-15T01:37:48.373Z,11.89
2023-05-15T01:40:18.929Z,11.46
2023-05-15T01:42:53.990Z,11.07
2023-05-15T01:45:24.503Z,10.77
2023-05-15T01:47:54.450Z,10.86
2023-05-15T01:50:22.107Z,10.94
2023-05-15T01:52:53.774Z,11.14
2023-05-15T01:55:23.790Z,11.35
2023-05-15T01:57:52.155Z,11.64
2023-05-15T02:00:20.583Z,12.04
2023-05-15T02:02:49.446Z,12.36
2023-05-15T02:05:17.701Z,12.51
2023-05-15T02:07:45.808Z,12.90
2023-05-15T02:10:13.720Z,13.09
2023-05-15T02:12:42.291Z,13.37
2023-05-15T02:15:10.447Z,13.45
2023-05-15T02:17:38.306Z,13.57
2023-05-15T02:20:05.836Z,13.60
2023-05-15T02:22:32.519Z,13.45
2023-05-15T02:24:59.172Z,13.05
2023-05-15T02:27:46.574Z,12.94
2023-05-15T02:30:28.225Z,12.47
2023-05-15T02:33:31.772Z,12.81
2023-05-15T02:36:20.141Z,12.36
2023-05-15T02:38:53.223Z,12.84
2023-05-15T02:41:21.707Z,12.83
2023-05-15T02:43:51.573Z,12.65
2023-05-15T02:46:20.444Z,12.62
2023-05-15T02:48:48.954Z,12.90
2023-05-15T02:51:15.935Z,13.13
2023-05-15T02:53:43.138Z,13.31
2023-05-15T02:56:10.266Z,13.30
2023-05-15T02:58:38.600Z,13.35
2023-05-15T03:01:05.707Z,13.43
2023-05-15T03:03:32.611Z,13.00
2023-05-15T03:05:59.274Z,12.57
2023-05-15T03:08:25.922Z,12.75
2023-05-15T03:10:52.617Z,12.24
2023-05-15T03:13:19.215Z,12.33
2023-05-15T03:15:45.997Z,12.27
2023-05-15T03:18:13.093Z,12.30
2023-05-15T03:20:39.758Z,12.02
2023-05-15T03:23:06.511Z,11.88
2023-05-15T03:25:33.149Z,11.95
2023-05-15T03:27:59.757Z,12.51
2023-05-15T03:30:26.522Z,12.58
2023-05-15T03:32:53.240Z,12.73
2023-05-15T03:35:19.878Z,12.61
2023-05-15T03:37:46.594Z,12.63
2023-05-15T03:40:13.850Z,12.62
2023-05-15T03:42:40.480Z,12.56
2023-05-15T03:45:08.026Z,12.01
2023-05-15T03:47:34.793Z,11.40
2023-05-15T03:50:01.464Z,11.05
2023-05-15T03:52:28.171Z,11.21
2023-05-15T03:54:54.808Z,11.62
2023-05-15T03:57:21.416Z,11.89
2023-05-15T03:59:50.048Z,12.09
2023-05-15T04:02:16.724Z,11.92
2023-05-15T04:04:43.471Z,11.72
2023-05-15T04:07:10.368Z,11.92
2023-05-15T04:09:37.000Z,12.06
2023-05-15T04:12:03.932Z,12.15
2023-05-15T04:14:30.530Z,12.22
2023-05-15T04:16:57.211Z,12.36
2023-05-15T04:19:23.845Z,12.41
2023-05-15T04:21:50.520Z,12.67
2023-05-15T04:24:17.131Z,12.89
2023-05-15T04:26:43.788Z,12.89
2023-05-15T04:29:10.413Z,12.78
2023-05-15T04:31:37.099Z,12.71
2023-05-15T04:34:03.737Z,12.80
2023-05-15T04:36:30.490Z,11.97
2023-05-15T04:38:57.132Z,11.50
2023-05-15T04:41:23.846Z,11.39
2023-05-15T04:43:50.522Z,11.27
2023-05-15T04:46:17.281Z,11.18
2023-05-15T04:48:43.962Z,11.39
2023-05-15T04:51:10.687Z,10.94
2023-05-15T04:53:37.263Z,10.83
2023-05-15T04:56:03.986Z,11.00
2023-05-15T04:58:30.617Z,11.07
2023-05-15T05:00:57.212Z,10.86
2023-05-15T05:03:23.865Z,10.79
2023-05-15T05:05:50.493Z,10.92
2023-05-15T05:08:17.194Z,10.86
2023-05-15T05:10:43.835Z,10.86
2023-05-15T05:13:10.476Z,10.91
2023-05-15T05:15:37.109Z,11.21
2023-05-15T05:18:04.116Z,11.28
2023-05-15T05:20:30.785Z,11.41
2023-05-15T05:22:57.432Z,11.34
2023-05-15T05:25:24.389Z,11.66
2023-05-15T05:27:51.319Z,12.15
2023-05-15T05:30:18.197Z,12.30
2023-05-15T05:32:44.964Z,11.98
2023-05-15T05:35:14.132Z,11.80
2023-05-15T05:37:41.487Z,11.69
2023-05-15T05:40:09.125Z,12.15
2023-05-15T05:42:38.521Z,12.50
2023-05-15T05:45:06.827Z,12.85
2023-05-15T05:47:33.505Z,13.35
2023-05-15T05:50:00.249Z,13.70
2023-05-15T05:52:26.878Z,14.03
2023-05-15T05:54:53.504Z,14.23
2023-05-15T05:57:20.180Z,14.37
2023-05-15T05:59:46.918Z,14.36
2023-05-15T06:02:13.630Z,14.32
2023-05-15T06:04:40.337Z,14.46
2023-05-15T06:07:07.006Z,14.90
2023-05-15T06:09:33.638Z,15.29
2023-05-15T06:12:00.263Z,15.56
2023-05-15T06:14:26.864Z,15.74
2023-05-15T06:16:56.164Z,15.63
2023-05-15T06:19:22.908Z,16.06
2023-05-15T06:21:49.617Z,15.52
2023-05-15T06:24:16.273Z,15.46
2023-05-15T06:26:43.259Z,15.75
2023-05-15T06:29:09.968Z,15.73
2023-05-15T06:31:36.586Z,15.80
2023-05-15T06:34:03.260Z,15.42
2023-05-15T06:36:29.884Z,14.63
2023-05-15T06:38:56.499Z,13.93
2023-05-15T06:41:23.186Z,14.11
2023-05-15T06:43:49.901Z,14.49
2023-05-15T06:46:16.621Z,14.17
2023-05-15T06:48:43.273Z,14.44
2023-05-15T06:51:10.274Z,14.70
2023-05-15T06:53:36.879Z,13.90
2023-05-15T06:56:03.613Z,14.14
2023-05-15T06:58:30.272Z,14.99
2023-05-15T07:00:57.743Z,15.42
2023-05-15T07:03:26.020Z,16.23
2023-05-15T07:05:53.472Z,15.92
2023-05-15T07:08:20.163Z,16.76
2023-05-15T07:10:46.963Z,17.60
2023-05-15T07:13:13.574Z,17.55
2023-05-15T07:15:40.277Z,16.95
2023-05-15T07:18:07.013Z,16.75
2023-05-15T07:20:35.141Z,17.84
2023-05-15T07:23:03.501Z,18.29
2023-05-15T07:25:30.137Z,17.32
2023-05-15T07:27:56.981Z,17.32
2023-05-15T07:30:25.450Z,18.14
2023-05-15T07:32:52.224Z,18.27
2023-05-15T07:35:18.985Z,18.53
2023-05-15T07:37:45.649Z,18.84
2023-05-15T07:40:12.464Z,18.95
2023-05-15T07:42:39.066Z,17.76
2023-05-15T07:45:09.328Z,15.80
2023-05-15T07:47:36.173Z,14.75
2023-05-15T07:50:05.066Z,14.72
2023-05-15T07:55:00.740Z,15.82
2023-05-15T07:57:27.383Z,16.24
2023-05-15T07:59:54.067Z,16.38
2023-05-15T08:02:20.942Z,16.91
2023-05-15T08:04:47.657Z,17.06
2023-05-15T08:07:14.899Z,17.68
2023-05-15T08:09:42.178Z,17.79
2023-05-15T08:12:20.098Z,17.68
2023-05-15T08:14:56.660Z,16.32
2023-05-15T08:17:25.095Z,15.57
2023-05-15T08:19:52.563Z,14.96
2023-05-15T08:22:19.232Z,15.09
2023-05-15T08:24:45.907Z,15.23
2023-05-15T08:27:12.663Z,15.47
2023-05-15T08:29:39.672Z,15.19
2023-05-15T08:32:07.698Z,15.62
2023-05-15T08:34:34.648Z,15.84
2023-05-15T08:37:05.034Z,16.12
2023-05-15T08:39:31.796Z,16.05
2023-05-15T08:42:15.505Z,15.63
2023-05-15T08:44:42.602Z,15.37
2023-05-15T08:47:09.853Z,15.15
2023-05-15T08:50:06.980Z,15.83
2023-05-15T08:52:34.441Z,14.85
2023-05-15T08:55:03.474Z,14.46
2023-05-15T08:57:30.607Z,14.49
2023-05-15T08:59:58.118Z,14.63
2023-05-15T09:02:25.105Z,14.25
2023-05-15T09:04:52.328Z,14.71
2023-05-15T09:07:20.386Z,14.95
2023-05-15T09:09:47.565Z,15.14
2023-05-15T09:12:19.003Z,15.30
2023-05-15T09:14:45.777Z,15.68
2023-05-15T09:17:12.999Z,15.86
2023-05-15T09:19:40.283Z,15.89
2023-05-15T09:22:20.724Z,16.26
2023-05-15T09:24:47.566Z,16.00
2023-05-15T09:27:15.210Z,16.46
2023-05-15T09:29:42.111Z,15.88
2023-05-15T09:32:11.007Z,16.05
2023-05-15T09:34:42.576Z,16.50
2023-05-15T09:37:11.182Z,16.87
2023-05-15T09:39:44.694Z,16.67
2023-05-15T09:42:15.949Z,16.67
2023-05-15T09:44:44.498Z,17.26
2023-05-15T09:47:12.919Z,16.85
2023-05-15T09:49:39.981Z,16.95
2023-05-15T09:52:10.347Z,16.80
2023-05-15T09:54:37.543Z,16.95
2023-05-15T09:57:11.760Z,16.61
2023-05-15T09:59:46.792Z,15.88
2023-05-15T10:02:23.798Z,15.22
2023-05-15T10:04:58.030Z,15.09
2023-05-15T10:07:35.321Z,15.20
2023-05-15T10:10:04.607Z,15.48
2023-05-15T10:12:32.041Z,15.39
2023-05-15T10:15:03.161Z,15.35
2023-05-15T10:17:34.460Z,15.20
2023-05-15T10:20:02.556Z,15.49
2023-05-15T10:22:32.518Z,15.77
2023-05-15T10:25:41.238Z,16.10
2023-05-15T10:28:10.591Z,16.54
2023-05-15T10:30:38.589Z,16.58
2023-05-15T10:33:08.028Z,15.76
2023-05-15T10:35:35.331Z,15.77
2023-05-15T10:38:05.987Z,15.34
2023-05-15T10:40:36.501Z,15.86
2023-05-15T10:43:04.981Z,16.21
2023-05-15T10:45:34.274Z,16.75
2023-05-15T10:48:09.668Z,16.97
2023-05-15T10:50:39.576Z,17.88
2023-05-15T10:56:04.412Z,16.69
2023-05-15T10:58:31.366Z,17.29
2023-05-15T11:01:05.173Z,17.42
2023-05-15T11:03:48.843Z,16.99
2023-05-15T11:06:16.214Z,17.33
2023-05-15T11:08:43.363Z,17.57
2023-05-15T11:11:48.552Z,17.50
2023-05-15T11:14:15.244Z,17.44
2023-05-15T11:16:54.315Z,17.31
2023-05-15T11:19:39.876Z,17.52
2023-05-15T11:22:09.264Z,17.89
2023-05-15T11:24:57.704Z,18.61
2023-05-15T11:27:33.545Z,18.93
2023-05-15T11:30:13.452Z,19.11
2023-05-15T11:32:50.741Z,18.89
2023-05-15T11:35:51.372Z,18.81
2023-05-15T11:38:23.467Z,18.52
2023-05-15T11:40:54.905Z,17.41
2023-05-15T11:43:32.823Z,17.91
2023-05-15T11:46:13.176Z,18.12
2023-05-15T11:48:40.830Z,17.49
2023-05-15T11:51:26.305Z,17.37
2023-05-15T11:53:58.061Z,17.63
2023-05-15T11:56:27.216Z,16.99
2023-05-15T11:59:00.870Z,16.94
2023-05-15T12:01:27.527Z,17.09
2023-05-15T12:03:54.912Z,16.96
2023-05-15T12:06:22.620Z,17.18
2023-05-15T12:08:53.589Z,17.06
2023-05-15T12:11:24.607Z,17.55
2023-05-15T12:13:55.378Z,18.26
2023-05-15T12:16:26.313Z,17.98
2023-05-15T12:18:53.757Z,17.90
2023-05-15T12:21:20.450Z,17.94
2023-05-15T12:24:03.359Z,17.54
2023-05-15T12:26:33.666Z,17.35
2023-05-15T12:29:00.664Z,17.57
2023-05-15T12:31:27.774Z,18.01
2023-05-15T12:33:56.369Z,18.23
2023-05-15T12:36:24.042Z,18.21
2023-05-15T12:38:50.996Z,18.56
2023-05-15T12:41:17.864Z,18.40
2023-05-15T12:43:44.584Z,18.55
2023-05-15T12:46:13.623Z,17.84
2023-05-15T12:48:41.044Z,17.79
2023-05-15T12:51:10.918Z,17.43
2023-05-15T12:53:37.686Z,17.56
2023-05-15T12:56:04.792Z,17.12
2023-05-15T12:58:31.718Z,17.04
2023-05-15T13:00:58.422Z,17.28
2023-05-15T13:03:25.378Z,17.12
2023-05-15T13:05:52.548Z,17.13
2023-05-15T13:08:22.419Z,16.97
2023-05-15T13:10:56.798Z,16.56
2023-05-15T13:13:23.773Z,16.00
2023-05-15T13:15:50.607Z,15.08
2023-05-15T13:18:18.381Z,14.22
2023-05-15T13:20:50.523Z,13.70
2023-05-15T13:23:21.947Z,13.19
2023-05-15T13:25:52.780Z,12.49
2023-05-15T13:28:19.474Z,12.05
2023-05-15T13:30:46.184Z,11.96
2023-05-15T13:33:13.250Z,11.84
2023-05-15T13:35:41.654Z,12.11
2023-05-15T13:38:11.176Z,12.34
2023-05-15T13:40:41.141Z,12.82
2023-05-15T13:43:07.931Z,13.40
2023-05-15T13:45:34.724Z,13.67
2023-05-15T13:48:01.438Z,13.63
2023-05-15T13:50:28.272Z,13.78
2023-05-15T13:52:55.346Z,14.24
2023-05-15T13:55:23.124Z,14.48
2023-05-15T13:57:50.209Z,14.20
2023-05-15T14:00:17.360Z,14.03
2023-05-15T14:02:44.945Z,14.21
2023-05-15T14:05:14.371Z,14.02
2023-05-15T14:07:42.109Z,14.19
2023-05-15T14:10:09.530Z,14.41
2023-05-15T14:12:37.417Z,14.74
2023-05-15T14:15:04.387Z,15.30
2023-05-15T14:17:31.061Z,15.38
2023-05-15T14:19:57.732Z,15.55
2023-05-15T14:22:24.373Z,15.68
2023-05-15T14:24:51.957Z,15.99
2023-05-15T14:27:18.756Z,16.09
2023-05-15T14:29:45.509Z,16.22
2023-05-15T14:32:12.207Z,16.14
2023-05-15T14:34:39.054Z,15.96
2023-05-15T14:37:05.820Z,16.28
2023-05-15T14:39:32.514Z,16.46
2023-05-15T14:42:01.088Z,16.63
2023-05-15T14:44:28.341Z,16.49
2023-05-15T14:47:12.460Z,16.77
2023-05-15T14:49:39.876Z,16.88
2023-05-15T14:52:08.904Z,16.84
2023-05-15T14:54:36.452Z,16.12
2023-05-15T14:57:03.396Z,15.63
2023-05-15T14:59:30.318Z,15.75
2023-05-15T15:01:57.096Z,15.94
2023-05-15T15:04:23.934Z,16.34
2023-05-15T15:06:50.627Z,15.75
2023-05-15T15:09:19.511Z,16.57
2023-05-15T15:11:48.534Z,16.97
2023-05-15T15:14:15.606Z,16.96
2023-05-15T15:16:42.331Z,16.45
2023-05-15T15:19:09.417Z,16.93
2023-05-15T15:21:36.051Z,16.92
2023-05-15T15:24:02.713Z,17.11
2023-05-15T15:26:29.366Z,16.68
2023-05-15T15:28:56.019Z,15.96
2023-05-15T15:31:22.711Z,15.65
2023-05-15T15:33:49.337Z,15.76
2023-05-15T15:36:16.036Z,15.31
2023-05-15T15:38:42.672Z,15.28
2023-05-15T15:41:09.446Z,15.01
2023-05-15T15:43:36.074Z,15.03
2023-05-15T15:46:03.002Z,15.09
2023-05-15T15:48:29.742Z,15.62
2023-05-15T15:50:56.483Z,15.45
2023-05-15T15:53:23.837Z,14.71
2023-05-15T15:55:50.507Z,14.76
2023-05-15T15:58:17.149Z,14.47
2023-05-15T16:00:43.747Z,14.41
2023-05-15T16:03:10.464Z,14.50
2023-05-15T16:05:37.124Z,14.25
2023-05-15T16:08:03.832Z,14.45
2023-05-15T16:10:30.908Z,14.61
2023-05-15T16:12:57.757Z,14.60
2023-05-15T16:15:24.503Z,14.64
2023-05-15T16:17:52.858Z,14.83
2023-05-15T16:20:20.311Z,15.16
2023-05-15T16:22:47.023Z,14.93
2023-05-15T16:25:13.682Z,14.52
2023-05-15T16:27:40.391Z,14.60
2023-05-15T16:30:07.678Z,14.34
2023-05-15T16:32:34.400Z,14.36
2023-05-15T16:35:01.060Z,14.36
2023-05-15T16:37:27.964Z,14.22
2023-05-15T16:39:54.643Z,14.32
2023-05-15T16:42:21.314Z,14.30
2023-05-15T16:44:47.932Z,13.96
2023-05-15T16:47:14.579Z,13.88
2023-05-15T16:49:43.922Z,13.94
2023-05-15T16:52:11.362Z,13.76
2023-05-15T16:54:37.979Z,13.58
2023-05-15T16:57:05.008Z,13.46
2023-05-15T16:59:31.686Z,13.54
2023-05-15T17:01:58.468Z,13.43
2023-05-15T17:04:25.208Z,13.41
2023-05-15T17:06:51.955Z,13.20
2023-05-15T17:09:18.640Z,13.36
2023-05-15T17:11:45.331Z,13.29
2023-05-15T17:14:12.042Z,13.26
2023-05-15T17:16:39.180Z,13.38
2023-05-15T17:19:06.142Z,13.52
2023-05-15T17:21:33.004Z,13.38
2023-05-15T17:23:59.682Z,13.41
2023-05-15T17:26:26.681Z,13.44
2023-05-15T17:28:53.368Z,13.56
2023-05-15T17:31:19.997Z,13.72
2023-05-15T17:33:47.840Z,13.85
2023-05-15T17:36:14.680Z,14.24
2023-05-15T17:38:41.333Z,14.47
2023-05-15T17:41:08.030Z,14.29
2023-05-15T17:43:34.703Z,14.20
2023-05-15T17:46:01.474Z,14.01
2023-05-15T17:48:28.198Z,14.05
2023-05-15T17:50:54.830Z,13.66
2023-05-15T17:53:21.454Z,13.70
2023-05-15T17:55:48.286Z,14.23
2023-05-15T17:58:14.991Z,14.68
2023-05-15T18:00:41.645Z,14.93
2023-05-15T18:03:08.379Z,15.09
2023-05-15T18:05:35.191Z,15.08
2023-05-15T18:08:01.817Z,14.69
2023-05-15T18:10:28.488Z,14.43
2023-05-15T18:12:55.200Z,14.21
2023-05-15T18:15:21.906Z,14.11
2023-05-15T18:17:48.584Z,13.68
2023-05-15T18:20:15.246Z,13.31
2023-05-15T18:22:42.154Z,13.23
2023-05-15T18:25:09.102Z,13.15
2023-05-15T18:27:35.695Z,13.18
2023-05-15T18:30:02.860Z,13.27
2023-05-15T18:32:32.409Z,13.18
2023-05-15T18:34:59.771Z,13.47
2023-05-15T18:37:26.420Z,13.52
2023-05-15T18:39:53.059Z,13.35
2023-05-15T18:42:19.721Z,13.23
2023-05-15T18:44:46.434Z,13.15
2023-05-15T18:47:13.152Z,13.11
2023-05-15T18:49:39.834Z,13.19
2023-05-15T18:52:06.732Z,13.24
2023-05-15T18:54:33.531Z,13.51
2023-05-15T18:57:00.277Z,13.68
2023-05-15T18:59:28.586Z,13.63
2023-05-15T19:01:55.426Z,13.62
2023-05-15T19:04:22.108Z,13.55
2023-05-15T19:06:48.738Z,13.43
2023-05-15T19:09:15.480Z,13.39
2023-05-15T19:11:42.113Z,13.43
2023-05-15T19:14:08.764Z,13.31
2023-05-15T19:16:35.837Z,13.39
2023-05-15T19:19:02.495Z,13.21
2023-05-15T19:21:29.187Z,13.24
2023-05-15T19:23:55.822Z,13.09
2023-05-15T19:26:22.472Z,13.21
2023-05-15T19:28:49.150Z,13.28
2023-05-15T19:31:27.913Z,13.26
2023-05-15T19:33:58.514Z,13.20
2023-05-15T19:36:25.235Z,13.26
2023-05-15T19:38:51.913Z,13.28
2023-05-15T19:41:18.549Z,13.31
2023-05-15T19:43:45.183Z,13.30
2023-05-15T19:46:13.095Z,13.46
2023-05-15T19:48:39.749Z,13.47
2023-05-15T19:51:06.417Z,13.58
2023-05-15T19:53:33.039Z,13.65
2023-05-15T19:55:59.760Z,13.72
2023-05-15T19:58:26.476Z,13.36
2023-05-15T20:00:54.051Z,13.39
2023-05-15T20:03:21.396Z,13.48
2023-05-15T20:05:48.556Z,13.32
2023-05-15T20:08:15.226Z,13.38
2023-05-15T20:10:41.844Z,13.53
2023-05-15T20:13:09.581Z,13.63
2023-05-15T20:15:36.209Z,13.68
2023-05-15T20:18:02.930Z,13.56
2023-05-15T20:20:29.642Z,13.67
2023-05-15T20:22:56.255Z,13.41
2023-05-15T20:25:24.268Z,13.33
2023-05-15T20:27:53.703Z,13.32
2023-05-15T20:30:20.313Z,13.06
2023-05-15T20:32:47.030Z,12.90
2023-05-15T20:35:13.860Z,12.62
2023-05-15T20:37:40.867Z,12.54
2023-05-15T20:40:08.247Z,12.71
2023-05-15T20:42:34.976Z,12.46
2023-05-15T20:45:01.965Z,12.39
2023-05-15T20:47:28.709Z,12.40
2023-05-15T20:49:58.495Z,12.54
2023-05-15T20:52:25.264Z,12.44
2023-05-15T20:54:52.028Z,12.49
2023-05-15T20:57:18.694Z,12.53
2023-05-15T20:59:49.577Z,12.46
2023-05-15T21:02:16.687Z,12.61
2023-05-15T21:04:46.076Z,12.51
2023-05-15T21:07:13.630Z,12.61
2023-05-15T21:09:40.275Z,12.72
2023-05-15T21:12:07.336Z,12.44
2023-05-15T21:14:35.994Z,12.64
2023-05-15T21:17:02.823Z,12.62
2023-05-15T21:19:30.032Z,12.49
2023-05-15T21:21:56.716Z,12.52
2023-05-15T21:24:23.312Z,12.39
2023-05-15T21:26:49.941Z,12.46
2023-05-15T21:29:16.656Z,12.50
2023-05-15T21:31:43.564Z,12.41
2023-05-15T21:34:10.227Z,12.41
2023-05-15T21:36:36.997Z,12.43
2023-05-15T21:39:03.759Z,12.51
2023-05-15T21:41:30.400Z,12.43
2023-05-15T21:43:57.020Z,12.43
2023-05-15T21:46:23.738Z,12.58
2023-05-15T21:48:50.376Z,12.51
2023-05-15T21:51:17.073Z,12.51
2023-05-15T21:53:43.828Z,12.43
2023-05-15T21:56:10.496Z,12.38
2023-05-15T21:58:37.102Z,12.32
2023-05-15T22:01:03.803Z,12.42
2023-05-15T22:03:30.594Z,12.43
2023-05-15T22:05:57.293Z,12.41
2023-05-15T22:08:23.986Z,12.56
2023-05-15T22:10:50.739Z,12.56
2023-05-15T22:13:17.389Z,12.54
2023-05-15T22:15:44.043Z,12.56
2023-05-15T22:18:10.720Z,12.61
2023-05-15T22:20:37.398Z,12.54
2023-05-15T22:23:04.018Z,12.51
2023-05-15T22:25:30.688Z,12.69
2023-05-15T22:27:57.415Z,12.67
2023-05-15T22:30:24.218Z,12.82
2023-05-15T22:32:51.011Z,13.08
2023-05-15T22:35:17.939Z,13.16
2023-05-15T22:37:44.602Z,13.13
2023-05-15T22:40:11.831Z,13.16
2023-05-15T22:42:38.459Z,13.02
2023-05-15T22:45:05.577Z,13.25
2023-05-15T22:47:32.251Z,13.64
2023-05-15T22:49:58.941Z,13.26
2023-05-15T22:52:25.796Z,13.14
2023-05-15T22:54:52.438Z,12.69
2023-05-15T22:57:19.158Z,12.69
2023-05-15T22:59:45.841Z,12.73
2023-05-15T23:02:12.490Z,12.56
2023-05-15T23:04:39.185Z,12.70
2023-05-15T23:07:05.833Z,12.63
2023-05-15T23:09:34.700Z,12.60
2023-05-15T23:12:01.350Z,12.47
2023-05-15T23:14:28.067Z,12.44
2023-05-15T23:16:54.754Z,12.45
2023-05-15T23:19:21.547Z,12.41
2023-05-15T23:21:48.277Z,12.33
2023-05-15T23:24:14.916Z,12.31
2023-05-15T23:26:41.837Z,12.24
2023-05-15T23:29:08.656Z,12.16
2023-05-15T23:31:35.338Z,12.17
2023-05-15T23:34:02.093Z,12.11
2023-05-15T23:36:28.769Z,12.15
2023-05-15T23:38:55.451Z,12.23
2023-05-15T23:41:22.219Z,12.17
2023-05-15T23:43:48.867Z,12.32
2023-05-15T23:46:16.522Z,12.35
2023-05-15T23:48:43.404Z,12.29
2023-05-15T23:51:10.537Z,12.41
2023-05-15T23:53:38.020Z,12.49
2023-05-15T23:56:06.069Z,12.39
2023-05-15T23:58:32.903Z,12.36
